createdAt,value
2023-05-16T00:00:42.245Z,99253.41
2023-05-16T00:03:11.620Z,99248.59
2023-05-16T00:05:38.682Z,99243.40
2023-05-16T00:08:05.825Z,99244.77
2023-05-16T00:10:32.792Z,99243.33
2023-05-16T00:13:01.304Z,99245.48
2023-05-16T00:15:29.422Z,99243.79
2023-05-16T00:17:59.213Z,99236.89
2023-05-16T00:20:27.578Z,99243.66
2023-05-16T00:22:54.860Z,99242.01
2023-05-16T00:25:22.244Z,99235.14
2023-05-16T00:27:49.032Z,99237.29
2023-05-16T00:30:16.305Z,99239.30
2023-05-16T00:32:44.367Z,99241.14
2023-05-16T00:35:11.870Z,99241.98
2023-05-16T00:37:38.995Z,99238.71
2023-05-16T00:40:06.969Z,99223.80
2023-05-16T00:42:34.008Z,99212.73
2023-05-16T00:45:00.763Z,99218.09
2023-05-16T00:47:29.219Z,99204.81
2023-05-16T00:49:56.486Z,99201.11
2023-05-16T00:52:24.169Z,99204.05
2023-05-16T00:54:51.650Z,99207.02
2023-05-16T00:57:18.921Z,99203.70
2023-05-16T00:59:46.571Z,99198.45
2023-05-16T01:02:13.811Z,99199.98
2023-05-16T01:04:41.371Z,99193.11
2023-05-16T01:07:08.728Z,99181.92
2023-05-16T01:09:35.563Z,99181.30
2023-05-16T01:12:25.447Z,99160.74
2023-05-16T01:14:59.353Z,99160.32
2023-05-16T01:17:47.165Z,99161.76
2023-05-16T01:20:32.638Z,99153.06
2023-05-16T01:23:19.294Z,99150.53
2023-05-16T01:25:53.256Z,99145.77
2023-05-16T01:28:20.255Z,99141.05
2023-05-16T01:30:47.205Z,99141.16
2023-05-16T01:33:14.013Z,99140.55
2023-05-16T01:35:46.751Z,99140.70
2023-05-16T01:38:23.317Z,99144.91
2023-05-16T01:41:21.028Z,99146.45
2023-05-16T01:43:50.816Z,99156.33
2023-05-16T01:46:29.925Z,99159.45
2023-05-16T01:49:16.536Z,99160.68
2023-05-16T01:51:51.200Z,99152.95
2023-05-16T01:54:18.673Z,99149.84
2023-05-16T01:56:52.003Z,99149.73
2023-05-16T01:59:20.506Z,99149.49
2023-05-16T02:01:47.631Z,99146.41
2023-05-16T02:04:15.299Z,99140.86
2023-05-16T02:06:42.317Z,99139.09
2023-05-16T02:09:09.462Z,99145.60
2023-05-16T02:11:39.824Z,99154.45
2023-05-16T02:14:07.230Z,99158.43
2023-05-16T02:16:34.098Z,99157.50
2023-05-16T02:19:01.131Z,99152.05
2023-05-16T02:21:28.047Z,99151.51
2023-05-16T02:23:54.959Z,99149.20
2023-05-16T02:26:22.148Z,99143.23
2023-05-16T02:28:49.433Z,99143.98
2023-05-16T02:31:32.867Z,99144.78
2023-05-16T02:33:59.878Z,99138.98
2023-05-16T02:36:27.217Z,99140.38
2023-05-16T02:38:54.173Z,99141.08
2023-05-16T02:41:22.551Z,99136.89
2023-05-16T02:43:49.600Z,99135.66
2023-05-16T02:46:24.544Z,99131.41
2023-05-16T02:48:51.526Z,99126.52
2023-05-16T02:51:20.218Z,99135.13
2023-05-16T02:53:47.111Z,99137.58
2023-05-16T02:56:14.420Z,99140.06
2023-05-16T02:58:41.453Z,99141.18
2023-05-16T03:01:08.724Z,99144.30
2023-05-16T03:03:38.349Z,99143.43
2023-05-16T03:06:05.649Z,99148.33
2023-05-16T03:08:33.539Z,99148.45
2023-05-16T03:11:00.681Z,99154.26
2023-05-16T03:13:29.543Z,99157.14
2023-05-16T03:15:58.976Z,99164.46
2023-05-16T03:18:25.803Z,99165.73
2023-05-16T03:20:52.544Z,99167.05
2023-05-16T03:23:20.472Z,99172.61
2023-05-16T03:25:47.457Z,99178.02
2023-05-16T03:28:16.056Z,99176.48
2023-05-16T03:30:42.811Z,99177.17
2023-05-16T03:33:09.527Z,99179.04
2023-05-16T03:35:37.247Z,99178.42
2023-05-16T03:38:04.039Z,99184.62
2023-05-16T03:40:30.913Z,99190.55
2023-05-16T03:42:59.197Z,99191.66
2023-05-16T03:45:26.192Z,99193.55
2023-05-16T03:47:53.389Z,99190.86
2023-05-16T03:50:20.201Z,99196.44
2023-05-16T03:52:47.002Z,99205.95
2023-05-16T03:55:14.601Z,99209.66
2023-05-16T03:57:41.978Z,99200.70
2023-05-16T04:00:10.560Z,99200.10
2023-05-16T04:02:40.613Z,99196.25
2023-05-16T04:05:08.814Z,99204.84
2023-05-16T04:07:36.687Z,99209.77
2023-05-16T04:10:04.077Z,99210.00
2023-05-16T04:12:31.921Z,99212.73
2023-05-16T04:14:59.230Z,99212.13
2023-05-16T04:17:25.985Z,99212.87
2023-05-16T04:19:52.728Z,99211.46
2023-05-16T04:22:27.063Z,99213.65
2023-05-16T04:24:53.862Z,99211.77
2023-05-16T04:27:20.826Z,99212.66
2023-05-16T04:29:47.638Z,99210.39
2023-05-16T04:32:14.731Z,99207.87
2023-05-16T04:34:44.641Z,99201.08
2023-05-16T04:37:11.591Z,99197.91
2023-05-16T04:39:38.534Z,99196.26
2023-05-16T04:42:05.526Z,99199.60
2023-05-16T04:44:32.212Z,99200.92
2023-05-16T04:46:59.113Z,99202.80
2023-05-16T04:49:26.012Z,99203.28
2023-05-16T04:51:52.721Z,99206.36
2023-05-16T04:54:19.439Z,99207.02
2023-05-16T04:56:46.190Z,99209.20
2023-05-16T04:59:12.932Z,99208.10
2023-05-16T05:01:40.547Z,99207.23
2023-05-16T05:04:07.334Z,99206.56
2023-05-16T05:06:34.990Z,99202.98
2023-05-16T05:09:01.817Z,99204.19
2023-05-16T05:11:28.713Z,99202.67
2023-05-16T05:13:56.079Z,99199.91
2023-05-16T05:16:24.490Z,99202.45
2023-05-16T05:18:51.321Z,99196.30
2023-05-16T05:21:19.747Z,99196.91
2023-05-16T05:23:48.647Z,99190.95
2023-05-16T05:26:15.649Z,99195.20
2023-05-16T05:28:47.792Z,99190.45
2023-05-16T05:31:18.386Z,99191.45
2023-05-16T05:33:45.881Z,99197.22
2023-05-16T05:36:12.739Z,99195.25
2023-05-16T05:38:39.661Z,99201.24
2023-05-16T05:41:06.904Z,99208.34
2023-05-16T05:43:36.372Z,99211.17
2023-05-16T05:46:03.110Z,99212.16
2023-05-16T05:48:31.870Z,99219.09
2023-05-16T05:50:58.886Z,99217.02
2023-05-16T05:53:25.645Z,99220.84
2023-05-16T05:55:52.481Z,99215.32
2023-05-16T05:58:20.981Z,99216.20
2023-05-16T06:00:47.735Z,99212.45
2023-05-16T06:03:14.806Z,99211.57
2023-05-16T06:05:41.928Z,99209.52
2023-05-16T06:08:08.745Z,99212.46
2023-05-16T06:10:36.430Z,99210.23
2023-05-16T06:13:03.231Z,99214.24
2023-05-16T06:15:30.188Z,99222.79
2023-05-16T06:17:57.578Z,99222.69
2023-05-16T06:20:24.605Z,99222.13
2023-05-16T06:22:51.503Z,99231.70
2023-05-16T06:25:19.311Z,99234.48
2023-05-16T06:27:46.662Z,99233.27
2023-05-16T06:30:13.568Z,99231.94
2023-05-16T06:32:41.044Z,99232.67
2023-05-16T06:35:09.089Z,99231.27
2023-05-16T06:37:36.398Z,99235.70
2023-05-16T06:40:04.092Z,99242.55
2023-05-16T06:42:31.803Z,99248.39
2023-05-16T06:44:59.106Z,99244.25
2023-05-16T06:47:26.376Z,99248.84
2023-05-16T06:49:53.456Z,99251.66
2023-05-16T06:52:21.421Z,99250.35
2023-05-16T06:54:48.379Z,99248.55
2023-05-16T06:57:15.942Z,99251.44
2023-05-16T06:59:42.962Z,99252.52
2023-05-16T07:02:10.871Z,99254.58
2023-05-16T07:04:37.748Z,99254.16
2023-05-16T07:07:07.077Z,99256.96
2023-05-16T07:09:34.744Z,99250.20
2023-05-16T07:12:02.726Z,99248.66
2023-05-16T07:14:31.553Z,99250.35
2023-05-16T07:16:58.328Z,99246.61
2023-05-16T07:19:25.249Z,99244.59
2023-05-16T07:21:52.094Z,99248.54
2023-05-16T07:24:19.221Z,99245.77
2023-05-16T07:26:46.853Z,99236.80
2023-05-16T07:29:13.734Z,99237.66
2023-05-16T07:31:40.953Z,99236.33
2023-05-16T07:34:09.830Z,99242.25
2023-05-16T07:36:36.741Z,99245.46
2023-05-16T07:39:03.664Z,99246.48
2023-05-16T07:41:30.873Z,99243.14
2023-05-16T07:43:58.008Z,99251.80
2023-05-16T07:46:25.647Z,99252.96
2023-05-16T07:48:52.660Z,99258.80
2023-05-16T07:51:19.599Z,99260.41
2023-05-16T07:53:46.478Z,99263.33
2023-05-16T07:56:13.285Z,99262.34
2023-05-16T07:58:41.074Z,99267.05
2023-05-16T08:01:08.280Z,99265.23
2023-05-16T08:03:35.885Z,99258.29
2023-05-16T08:06:03.122Z,99253.53
2023-05-16T08:08:30.277Z,99257.43
2023-05-16T08:10:57.054Z,99262.81
2023-05-16T08:13:24.220Z,99262.54
2023-05-16T08:15:51.965Z,99268.34
2023-05-16T08:18:22.045Z,99270.19
2023-05-16T08:20:49.337Z,99280.69
2023-05-16T08:23:16.287Z,99277.11
2023-05-16T08:25:43.183Z,99276.75
2023-05-16T08:28:10.114Z,99279.41
2023-05-16T08:30:36.886Z,99283.98
2023-05-16T08:33:05.844Z,99289.05
2023-05-16T08:35:34.795Z,99294.82
2023-05-16T08:38:02.785Z,99296.80
2023-05-16T08:40:30.883Z,99278.27
2023-05-16T08:42:57.757Z,99266.63
2023-05-16T08:45:24.592Z,99260.97
2023-05-16T08:47:52.527Z,99259.90
2023-05-16T08:50:19.686Z,99253.92
2023-05-16T08:52:47.241Z,99255.80
2023-05-16T08:55:14.128Z,99261.48
2023-05-16T08:57:41.064Z,99250.76
2023-05-16T09:00:11.314Z,99250.95
2023-05-16T09:02:40.153Z,99251.04
2023-05-16T09:05:09.297Z,99253.27
2023-05-16T09:07:36.740Z,99252.78
2023-05-16T09:10:06.275Z,99259.01
2023-05-16T09:12:34.100Z,99258.09
2023-05-16T09:15:03.275Z,99265.71
2023-05-16T09:17:39.889Z,99269.02
2023-05-16T09:20:11.300Z,99269.26
2023-05-16T09:22:38.758Z,99260.36
2023-05-16T09:25:08.624Z,99268.11
2023-05-16T09:27:40.371Z,99271.55
2023-05-16T09:30:08.376Z,99276.15
2023-05-16T09:32:35.464Z,99260.86
2023-05-16T09:35:03.268Z,99261.56
2023-05-16T09:37:30.712Z,99265.89
2023-05-16T09:39:57.640Z,99268.77
2023-05-16T09:42:25.125Z,99253.30
2023-05-16T09:44:53.757Z,99252.12
2023-05-16T09:47:21.381Z,99253.78
2023-05-16T09:49:52.300Z,99262.23
2023-05-16T09:52:19.074Z,99259.11
2023-05-16T09:54:48.806Z,99255.11
2023-05-16T09:57:19.891Z,99247.95
2023-05-16T09:59:46.980Z,99245.42
2023-05-16T10:02:14.076Z,99242.89
2023-05-16T10:04:41.833Z,99245.23
2023-05-16T10:07:09.106Z,99246.83
2023-05-16T10:09:36.625Z,99250.33
2023-05-16T10:12:06.037Z,99249.70
2023-05-16T10:14:34.304Z,99257.52
2023-05-16T10:17:01.271Z,99254.39
2023-05-16T10:19:30.160Z,99253.23
2023-05-16T10:22:01.394Z,99247.04
2023-05-16T10:24:39.738Z,99241.27
2023-05-16T10:27:06.470Z,99245.94
2023-05-16T10:29:43.010Z,99249.30
2023-05-16T10:32:20.717Z,99260.42
2023-05-16T10:34:47.764Z,99253.47
2023-05-16T10:37:14.562Z,99257.16
2023-05-16T10:39:42.257Z,99252.67
2023-05-16T10:42:09.874Z,99253.38
2023-05-16T10:44:38.327Z,99261.01
2023-05-16T10:47:05.294Z,99255.70
2023-05-16T10:49:32.159Z,99262.66
2023-05-16T10:52:11.531Z,99262.16
2023-05-16T10:54:39.857Z,99268.42
2023-05-16T10:57:11.478Z,99266.08
2023-05-16T10:59:42.968Z,99267.42
2023-05-16T11:02:33.216Z,99263.65
2023-05-16T11:05:01.417Z,99263.29
2023-05-16T11:07:33.760Z,99265.69
2023-05-16T11:10:10.651Z,99268.59
2023-05-16T11:12:38.626Z,99261.33
2023-05-16T11:15:28.349Z,99259.86
2023-05-16T11:18:09.550Z,99261.47
2023-05-16T11:20:38.071Z,99256.95
2023-05-16T11:23:17.111Z,99265.75
2023-05-16T11:25:58.037Z,99262.37
2023-05-16T11:28:26.476Z,99265.40
2023-05-16T11:30:56.902Z,99266.30
2023-05-16T11:33:24.121Z,99266.16
2023-05-16T11:36:22.198Z,99270.42
2023-05-16T11:38:49.254Z,99263.29
2023-05-16T11:41:17.190Z,99269.73
2023-05-16T11:43:44.714Z,99261.23
2023-05-16T11:46:15.629Z,99268.31
2023-05-16T11:48:43.173Z,99265.55
2023-05-16T11:51:10.290Z,99258.58
2023-05-16T11:53:37.658Z,99256.46
2023-05-16T11:56:06.669Z,99259.63
2023-05-16T11:58:33.999Z,99263.46
2023-05-16T12:01:03.818Z,99266.52
2023-05-16T12:03:33.165Z,99266.82
2023-05-16T12:06:00.341Z,99260.73
2023-05-16T12:08:27.163Z,99262.01
2023-05-16T12:10:54.008Z,99266.35
2023-05-16T12:13:23.104Z,99260.11
2023-05-16T12:15:50.863Z,99260.67
2023-05-16T12:18:17.796Z,99259.44
2023-05-16T12:21:14.026Z,99261.13
2023-05-16T12:23:43.601Z,99261.73
2023-05-16T12:26:10.396Z,99256.88
2023-05-16T12:28:42.645Z,99259.15
2023-05-16T12:31:30.241Z,99255.06
2023-05-16T12:33:58.422Z,99261.39
2023-05-16T12:36:25.833Z,99259.24
2023-05-16T12:38:53.141Z,99262.67
2023-05-16T12:41:24.524Z,99254.60
2023-05-16T12:43:51.345Z,99256.65
2023-05-16T12:46:19.192Z,99252.00
2023-05-16T12:48:47.539Z,99248.85
2023-05-16T12:51:17.242Z,99251.25
2023-05-16T12:54:01.258Z,99248.27
2023-05-16T12:56:39.517Z,99244.96
2023-05-16T12:59:07.150Z,99245.59
2023-05-16T13:01:35.547Z,99242.45
2023-05-16T13:04:02.727Z,99244.48
2023-05-16T13:06:39.657Z,99247.91
2023-05-16T13:09:16.100Z,99249.83
2023-05-16T13:11:43.811Z,99251.95
2023-05-16T13:14:12.500Z,99256.33
2023-05-16T13:16:41.473Z,99254.61
2023-05-16T13:19:10.381Z,99250.00
2023-05-16T13:21:46.753Z,99251.84
2023-05-16T13:24:56.954Z,99252.16
2023-05-16T13:27:23.660Z,99252.71
2023-05-16T13:29:50.680Z,99251.85
2023-05-16T13:32:18.418Z,99256.47
2023-05-16T13:34:45.235Z,99260.99
2023-05-16T13:37:12.085Z,99261.84
2023-05-16T13:39:39.040Z,99258.52
2023-05-16T13:42:05.845Z,99261.42
2023-05-16T13:44:32.712Z,99260.95
2023-05-16T13:46:59.495Z,99260.20
2023-05-16T13:49:26.287Z,99257.83
2023-05-16T13:51:52.995Z,99260.88
2023-05-16T13:54:21.258Z,99265.36
2023-05-16T13:56:48.201Z,99267.95
2023-05-16T13:59:20.143Z,99268.60
2023-05-16T14:01:54.502Z,99268.81
2023-05-16T14:04:22.171Z,99271.52
2023-05-16T14:06:49.610Z,99275.06
2023-05-16T14:09:16.446Z,99274.77
2023-05-16T14:11:43.357Z,99271.81
2023-05-16T14:14:11.137Z,99272.65
2023-05-16T14:16:38.098Z,99267.40
2023-05-16T14:19:06.977Z,99264.41
2023-05-16T14:21:34.612Z,99267.59
2023-05-16T14:24:01.503Z,99273.98
2023-05-16T14:26:28.731Z,99275.36
2023-05-16T14:28:56.380Z,99268.89
2023-05-16T14:31:23.164Z,99267.67
2023-05-16T14:33:50.816Z,99266.75
2023-05-16T14:36:17.629Z,99264.95
2023-05-16T14:38:44.454Z,99272.49
2023-05-16T14:41:11.297Z,99270.98
2023-05-16T14:43:38.476Z,99272.76
2023-05-16T14:46:05.368Z,99272.09
2023-05-16T14:48:33.092Z,99271.69
2023-05-16T14:50:59.914Z,99269.48
2023-05-16T14:53:26.852Z,99267.11
2023-05-16T14:55:54.773Z,99267.90
2023-05-16T14:58:21.660Z,99274.78
2023-05-16T15:00:48.727Z,99272.95
2023-05-16T15:03:17.367Z,99274.71
2023-05-16T15:05:44.746Z,99270.13
2023-05-16T15:08:11.605Z,99272.30
2023-05-16T15:10:39.040Z,99269.92
2023-05-16T15:13:06.169Z,99269.60
2023-05-16T15:15:33.943Z,99263.04
2023-05-16T15:18:01.123Z,99258.59
2023-05-16T15:20:28.104Z,99260.77
2023-05-16T15:22:55.615Z,99259.71
2023-05-16T15:25:22.451Z,99260.02
2023-05-16T15:27:49.421Z,99268.42
2023-05-16T15:30:16.595Z,99267.17
2023-05-16T15:32:44.414Z,99268.70
2023-05-16T15:35:11.467Z,99268.16
2023-05-16T15:37:38.419Z,99268.20
2023-05-16T15:40:06.271Z,99268.66
2023-05-16T15:42:33.403Z,99272.73
2023-05-16T15:45:00.711Z,99273.16
2023-05-16T15:47:27.644Z,99266.89
2023-05-16T15:49:54.748Z,99265.01
2023-05-16T15:52:22.997Z,99265.27
2023-05-16T15:54:50.077Z,99267.55
2023-05-16T15:57:16.872Z,99272.71
2023-05-16T15:59:44.095Z,99270.53
2023-05-16T16:02:13.489Z,99271.88
2023-05-16T16:04:40.294Z,99268.52
2023-05-16T16:07:07.091Z,99265.80
2023-05-16T16:09:34.424Z,99266.45
2023-05-16T16:12:01.986Z,99269.64
2023-05-16T16:14:30.748Z,99264.52
2023-05-16T16:16:57.580Z,99261.11
2023-05-16T16:19:25.271Z,99263.22
2023-05-16T16:21:52.208Z,99264.90
2023-05-16T16:24:19.791Z,99264.16
2023-05-16T16:26:48.090Z,99271.27
2023-05-16T16:29:15.099Z,99272.81
2023-05-16T16:31:41.984Z,99273.26
2023-05-16T16:34:09.508Z,99264.69
2023-05-16T16:36:36.340Z,99265.62
2023-05-16T16:39:05.225Z,99271.87
2023-05-16T16:41:33.750Z,99272.80
2023-05-16T16:44:01.075Z,99274.67
2023-05-16T16:46:28.721Z,99272.96
2023-05-16T16:48:56.084Z,99274.98
2023-05-16T16:51:22.913Z,99278.17
2023-05-16T16:53:49.862Z,99281.27
2023-05-16T16:56:16.770Z,99280.47
2023-05-16T16:58:43.787Z,99281.33
2023-05-16T17:01:12.167Z,99285.81
2023-05-16T17:03:40.218Z,99284.80
2023-05-16T17:06:07.447Z,99289.56
2023-05-16T17:08:35.014Z,99288.06
2023-05-16T17:11:04.702Z,99286.48
2023-05-16T17:13:33.740Z,99285.41
2023-05-16T17:16:00.970Z,99289.11
2023-05-16T17:18:28.173Z,99295.56
2023-05-16T17:20:55.576Z,99294.96
2023-05-16T17:23:22.618Z,99301.95
2023-05-16T17:25:49.672Z,99301.89
2023-05-16T17:28:16.764Z,99296.56
2023-05-16T17:30:43.663Z,99294.29
2023-05-16T17:33:11.730Z,99288.09
2023-05-16T17:35:40.205Z,99291.58
2023-05-16T17:38:06.996Z,99292.05
2023-05-16T17:40:35.121Z,99293.11
2023-05-16T17:43:02.591Z,99289.30
2023-05-16T17:45:30.654Z,99290.83
2023-05-16T17:47:57.615Z,99293.75
2023-05-16T17:50:28.801Z,99293.50
2023-05-16T17:52:55.881Z,99292.17
2023-05-16T17:55:22.932Z,99293.39
2023-05-16T17:57:50.061Z,99288.85
2023-05-16T18:00:19.243Z,99287.95
2023-05-16T18:02:46.541Z,99288.11
2023-05-16T18:05:15.915Z,99287.08
2023-05-16T18:07:43.387Z,99288.27
2023-05-16T18:10:10.900Z,99291.23
2023-05-16T18:12:43.413Z,99292.09
2023-05-16T18:15:14.269Z,99292.42
2023-05-16T18:17:41.937Z,99297.89
2023-05-16T18:20:10.178Z,99296.17
2023-05-16T18:22:40.647Z,99299.41
2023-05-16T18:25:09.101Z,99297.15
2023-05-16T18:27:36.804Z,99297.47
2023-05-16T18:30:05.180Z,99299.59
2023-05-16T18:32:32.750Z,99295.42
2023-05-16T18:35:02.790Z,99281.14
2023-05-16T18:37:30.531Z,99279.23
2023-05-16T18:39:57.537Z,99289.71
2023-05-16T18:42:25.317Z,99288.33
2023-05-16T18:44:52.212Z,99289.84
2023-05-16T18:47:20.260Z,99289.62
2023-05-16T18:49:47.164Z,99292.72
2023-05-16T18:52:14.238Z,99296.55
2023-05-16T18:54:41.242Z,99294.48
2023-05-16T18:57:08.321Z,99288.75
2023-05-16T18:59:35.396Z,99292.97
2023-05-16T19:02:04.010Z,99292.19
2023-05-16T19:04:31.390Z,99292.05
2023-05-16T19:06:58.550Z,99286.86
2023-05-16T19:09:25.478Z,99285.61
2023-05-16T19:11:52.354Z,99283.90
2023-05-16T19:14:19.944Z,99288.02
2023-05-16T19:16:46.789Z,99291.02
2023-05-16T19:19:14.411Z,99290.43
2023-05-16T19:21:42.029Z,99291.45
2023-05-16T19:24:09.021Z,99289.51
2023-05-16T19:26:36.430Z,99290.52
2023-05-16T19:29:03.347Z,99287.44
2023-05-16T19:31:30.534Z,99281.83
2023-05-16T19:33:57.626Z,99283.54
2023-05-16T19:36:24.618Z,99280.97
2023-05-16T19:38:51.566Z,99281.59
2023-05-16T19:41:18.492Z,99283.02
2023-05-16T19:43:45.553Z,99286.14
2023-05-16T19:46:12.652Z,99283.83
2023-05-16T19:48:39.678Z,99287.65
2023-05-16T19:51:08.845Z,99288.11
2023-05-16T19:53:35.899Z,99290.04
2023-05-16T19:56:04.169Z,99286.36
2023-05-16T19:58:31.310Z,99285.27
2023-05-16T20:00:58.616Z,99283.08
2023-05-16T20:03:26.096Z,99279.05
2023-05-16T20:05:53.093Z,99278.42
2023-05-16T20:08:20.044Z,99281.64
2023-05-16T20:10:47.260Z,99280.50
2023-05-16T20:13:17.877Z,99273.16
2023-05-16T20:15:46.272Z,99274.81
2023-05-16T20:18:17.941Z,99274.79
2023-05-16T20:20:44.976Z,99276.81
2023-05-16T20:23:11.955Z,99282.00
2023-05-16T20:25:39.169Z,99279.38
2023-05-16T20:28:06.339Z,99287.88
2023-05-16T20:30:33.198Z,99291.69
2023-05-16T20:33:00.193Z,99288.02
2023-05-16T20:35:27.974Z,99291.39
2023-05-16T20:37:55.324Z,99297.89
2023-05-16T20:40:22.557Z,99297.41
2023-05-16T20:42:49.337Z,99296.48
2023-05-16T20:45:16.360Z,99299.30
2023-05-16T20:47:43.607Z,99291.96
2023-05-16T20:50:10.637Z,99294.52
2023-05-16T20:52:37.914Z,99292.77
2023-05-16T20:55:05.478Z,99288.39
2023-05-16T20:57:32.425Z,99289.21
2023-05-16T20:59:59.461Z,99287.02
2023-05-16T21:02:26.338Z,99277.78
2023-05-16T21:04:53.527Z,99277.77
2023-05-16T21:07:21.097Z,99276.99
2023-05-16T21:09:47.887Z,99269.55
2023-05-16T21:12:14.913Z,99266.83
2023-05-16T21:14:43.596Z,99263.09
2023-05-16T21:17:10.931Z,99263.13
2023-05-16T21:19:38.399Z,99263.91
2023-05-16T21:22:05.564Z,99269.38
2023-05-16T21:24:35.099Z,99273.36
2023-05-16T21:27:20.789Z,99271.29
2023-05-16T21:29:47.550Z,99265.84
2023-05-16T21:32:16.172Z,99264.85
2023-05-16T21:34:43.316Z,99264.77
2023-05-16T21:37:13.237Z,99254.42
2023-05-16T21:39:40.097Z,99251.16
2023-05-16T21:42:07.420Z,99250.67
2023-05-16T21:44:34.349Z,99253.63
2023-05-16T21:47:01.311Z,99259.05
2023-05-16T21:49:28.774Z,99258.88
2023-05-16T21:51:55.715Z,99259.59
2023-05-16T21:54:22.544Z,99258.61
2023-05-16T21:56:49.503Z,99259.27
2023-05-16T21:59:16.394Z,99260.65
2023-05-16T22:01:43.586Z,99261.91
2023-05-16T22:04:11.152Z,99263.71
2023-05-16T22:06:38.511Z,99261.59
2023-05-16T22:09:05.557Z,99262.17
2023-05-16T22:11:32.415Z,99265.14
2023-05-16T22:13:59.924Z,99266.31
2023-05-16T22:16:26.783Z,99264.92
2023-05-16T22:18:53.844Z,99267.79
2023-05-16T22:21:21.097Z,99269.28
2023-05-16T22:23:48.759Z,99266.14
2023-05-16T22:26:16.011Z,99267.84
2023-05-16T22:28:43.086Z,99266.05
2023-05-16T22:31:10.445Z,99269.24
2023-05-16T22:33:37.610Z,99267.56
2023-05-16T22:36:05.136Z,99264.90
2023-05-16T22:38:32.367Z,99263.76
2023-05-16T22:40:59.302Z,99261.73
2023-05-16T22:43:26.960Z,99265.80
2023-05-16T22:45:53.816Z,99263.84
2023-05-16T22:48:20.982Z,99264.02
2023-05-16T22:50:47.859Z,99270.20
2023-05-16T22:53:14.832Z,99269.99
2023-05-16T22:55:41.695Z,99269.91
2023-05-16T22:58:08.576Z,99268.11
2023-05-16T23:00:36.176Z,99269.20
2023-05-16T23:03:03.168Z,99267.42
2023-05-16T23:05:31.770Z,99267.27
2023-05-16T23:07:58.760Z,99269.55
2023-05-16T23:10:25.725Z,99269.30
2023-05-16T23:12:53.050Z,99269.02
2023-05-16T23:15:20.113Z,99270.11
2023-05-16T23:17:47.038Z,99273.88
2023-05-16T23:20:14.011Z,99269.80
2023-05-16T23:22:41.879Z,99273.05
2023-05-16T23:25:09.259Z,99271.48
2023-05-16T23:27:36.673Z,99271.18
2023-05-16T23:30:04.645Z,99271.19
2023-05-16T23:32:32.219Z,99273.12
2023-05-16T23:34:59.362Z,99273.77
2023-05-16T23:37:26.273Z,99273.66
2023-05-16T23:39:53.157Z,99277.50
2023-05-16T23:42:19.966Z,99277.18
2023-05-16T23:44:46.822Z,99281.49
2023-05-16T23:47:13.668Z,99283.25
2023-05-16T23:49:40.383Z,99280.88
2023-05-16T23:52:07.688Z,99279.68
2023-05-16T23:54:34.812Z,99282.67
2023-05-16T23:57:01.879Z,99281.64
2023-05-16T23:59:29.944Z,99282.70
